Data for 12/29/2015

Time Sea-Level Adjusted Pressure Absolute Pressure Temperature Relative Humidity Dew Point   
(mb) (inHg) (mb) (inHg) (C) (F) (%) (C) (F)
00:05 1013 29.91 842 24.86 -9 15.8 69 -13.8 7.2
00:10 1013 29.91 842 24.86 -8.8 16.1 68 -13.7 7.4
00:15 1013 29.91 842 24.86 -8.9 16.1 68 -13.7 7.4
00:20 1013 29.91 842 24.86 -8.9 15.9 69 -13.7 7.4
00:25 1013 29.91 842 24.86 -9 15.8 70 -13.5 7.7
00:30 1013 29.91 842 24.86 -9.1 15.6 70 -13.7 7.3
00:35 1013 29.91 842 24.86 -9.2 15.5 71 -13.6 7.6
00:40 1013 29.91 842 24.86 -9.2 15.4 70 -13.8 7.2
00:45 1013 29.91 842 24.86 -9.1 15.6 69 -13.8 7.1
00:50 1013 29.91 842 24.86 -9 15.9 69 -13.6 7.5
00:55 1013 29.91 842 24.86 -8.8 16.1 69 -13.5 7.8
01:00 1013 29.91 842 24.86 -8.7 16.3 69 -13.5 7.8
01:05 1013 29.91 842 24.86 -8.7 16.3 70 -13.3 8.1
01:10 1013 29.91 842 24.86 -8.7 16.4 69 -13.4 7.9
01:15 1013 29.91 843 24.89 -8.7 16.4 70 -13.3 8.1
01:20 1013 29.91 843 24.89 -8.6 16.5 71 -13 8.7
01:25 1013 29.91 843 24.89 -8.6 16.5 71 -12.9 8.7
01:30 1013 29.91 843 24.89 -8.7 16.4 71 -13 8.7
01:35 1013 29.91 843 24.89 -8.7 16.4 71 -13 8.6
01:40 1013 29.91 843 24.89 -8.8 16.3 73 -12.7 9.1
01:45 1013 29.91 843 24.89 -8.8 16.1 73 -12.8 9
01:50 1013 29.91 843 24.89 -8.8 16.2 73 -12.9 8.9
01:55 1013 29.91 843 24.89 -8.8 16.1 74 -12.7 9.1
02:00 1013 29.91 843 24.89 -8.9 16 73 -12.9 8.8
02:05 1013 29.91 843 24.89 -8.9 15.9 71 -13.2 8.2
02:10 1013 29.91 843 24.89 -9 15.9 69 -13.7 7.3
02:15 1013 29.91 843 24.89 -9 15.8 69 -13.6 7.5
02:20 1013 29.91 843 24.89 -9 15.8 70 -13.5 7.7
02:25 1013 29.91 843 24.89 -9.1 15.6 72 -13.3 8.1
02:30 1013 29.91 843 24.89 -9.1 15.7 72 -13.2 8.3
02:35 1013 29.91 843 24.89 -9 15.7 73 -13 8.6
02:40 1014 29.94 843 24.89 -9.1 15.7 73 -13.1 8.4
02:45 1014 29.94 843 24.89 -9 15.7 75 -12.7 9.2
02:50 1013 29.91 843 24.89 -9 15.7 74 -12.8 8.9
02:55 1013 29.91 843 24.89 -9 15.8 75 -12.6 9.2
03:00 1013 29.91 843 24.89 -9 15.9 77 -12.2 10
03:05 1013 29.91 843 24.89 -9 15.9 78 -12.1 10.3
03:10 1013 29.91 843 24.89 -9 15.8 79 -12 10.4
03:15 1013 29.91 843 24.89 -9 15.8 78 -12.1 10.2
03:20 1014 29.94 843 24.89 -9 15.7 78 -12.2 10.1
03:25 1014 29.94 843 24.89 -9 15.7 80 -12 10.5
03:30 1014 29.94 843 24.89 -9 15.8 80 -11.9 10.6
03:35 1014 29.94 843 24.89 -9 15.8 80 -11.9 10.6
03:40 1014 29.94 843 24.89 -9 15.8 80 -11.8 10.8
03:45 1014 29.94 843 24.89 -9 15.8 81 -11.7 11
03:50 1014 29.94 843 24.89 -9 15.8 81 -11.7 10.9
03:55 1014 29.94 843 24.89 -9 15.8 82 -11.6 11.1
04:00 1014 29.94 843 24.89 -9 15.8 81 -11.7 11
04:05 1014 29.94 843 24.89 -9 15.8 81 -11.7 10.9
04:10 1014 29.94 843 24.89 -9.1 15.7 82 -11.7 11
04:15 1014 29.94 843 24.89 -9.2 15.5 82 -11.7 11
04:20 1014 29.94 843 24.89 -9.2 15.4 82 -11.7 10.9
04:25 1014 29.94 843 24.89 -9.2 15.4 82 -11.7 11
04:30 1014 29.94 843 24.89 -9.3 15.3 83 -11.7 10.9
04:35 1014 29.94 843 24.89 -9.3 15.2 83 -11.8 10.8
04:40 1014 29.94 843 24.89 -9.4 15.1 83 -11.8 10.8
04:45 1014 29.94 843 24.89 -9.4 15.1 83 -11.7 10.9
04:50 1014 29.94 843 24.89 -9.4 15.2 83 -11.8 10.8
04:55 1014 29.94 843 24.89 -9.4 15.1 83 -11.8 10.8
05:00 1014 29.94 843 24.89 -9.4 15.1 83 -11.8 10.8
05:05 1014 29.94 843 24.89 -9.4 15.2 83 -11.8 10.8
05:10 1014 29.94 843 24.89 -9.3 15.2 83 -11.7 11
05:15 1014 29.94 843 24.89 -9.3 15.3 83 -11.6 11.1
05:20 1014 29.94 843 24.89 -9.3 15.4 83 -11.6 11.1
05:25 1014 29.94 843 24.89 -9.3 15.3 83 -11.6 11.1
05:30 1014 29.94 843 24.89 -9.3 15.4 83 -11.6 11.1
05:35 1014 29.94 843 24.89 -9.2 15.4 83 -11.6 11.2
05:40 1014 29.94 843 24.89 -9.2 15.4 83 -11.5 11.2
05:45 1014 29.94 843 24.89 -9.2 15.5 83 -11.5 11.3
05:50 1014 29.94 843 24.89 -9.1 15.6 83 -11.5 11.4
05:55 1014 29.94 843 24.89 -9.2 15.5 82 -11.6 11.1
06:00 1014 29.94 843 24.89 -9.3 15.4 83 -11.6 11.1
06:05 1014 29.94 843 24.89 -9.3 15.2 83 -11.6 11.1
06:10 1014 29.94 843 24.89 -9.4 15.1 84 -11.6 11.1
06:15 1014 29.94 843 24.89 -9.3 15.2 85 -11.4 11.5
06:20 1014 29.94 843 24.89 -9.3 15.3 85 -11.3 11.6
06:25 1014 29.94 843 24.89 -9.2 15.4 85 -11.3 11.7
06:30 1014 29.94 843 24.89 -9.3 15.3 85 -11.3 11.6
06:35 1014 29.94 843 24.89 -9.3 15.3 85 -11.3 11.7
06:40 1014 29.94 843 24.89 -9.2 15.4 85 -11.3 11.7
06:45 1014 29.94 843 24.89 -9.3 15.4 86 -11.2 11.8
06:50 1014 29.94 843 24.89 -9.3 15.3 86 -11.2 11.8
06:55 1014 29.94 843 24.89 -9.2 15.4 86 -11.2 11.9
07:00 1014 29.94 843 24.89 -9.3 15.3 85 -11.3 11.7
07:05 1014 29.94 843 24.89 -9.5 15 86 -11.4 11.4
07:10 1014 29.94 843 24.89 -9.5 14.9 86 -11.4 11.5
07:15 1014 29.94 843 24.89 -9.4 15 86 -11.3 11.7
07:20 1014 29.94 843 24.89 -9.4 15.1 87 -11.2 11.8
07:25 1014 29.94 843 24.89 -9.3 15.2 87 -11.2 11.9
07:30 1014 29.94 843 24.89 -9.3 15.3 86 -11.2 11.9
07:35 1014 29.94 843 24.89 -9.2 15.4 86 -11.1 11.9
07:40 1014 29.94 844 24.92 -9.2 15.5 86 -11.2 11.9
07:45 1014 29.94 844 24.92 -9.2 15.4 86 -11.2 11.9
07:50 1014 29.94 844 24.92 -9.3 15.2 86 -11.2 11.8
07:55 1014 29.94 844 24.92 -9.3 15.2 86 -11.2 11.9
08:00 1014 29.94 844 24.92 -9.4 15.1 87 -11.2 11.8
08:05 1014 29.94 844 24.92 -9.5 15 87 -11.3 11.6
08:10 1014 29.94 844 24.92 -9.6 14.8 87 -11.4 11.5
08:15 1014 29.94 844 24.92 -9.5 14.8 87 -11.3 11.6
08:20 1014 29.94 844 24.92 -9.5 14.8 87 -11.3 11.6
08:25 1015 29.97 844 24.92 -9.5 15 87 -11.3 11.6
08:30 1015 29.97 844 24.92 -9.4 15.1 87 -11.2 11.8
08:35 1015 29.97 844 24.92 -9.4 15.1 86 -11.2 11.8
08:40 1015 29.97 844 24.92 -9.5 14.9 87 -11.2 11.8
08:45 1015 29.97 844 24.92 -9.6 14.8 88 -11.3 11.7
08:50 1015 29.97 844 24.92 -9.6 14.7 88 -11.2 11.8
08:55 1015 29.97 844 24.92 -9.5 15 88 -11.1 12
09:00 1015 29.97 844 24.92 -9.3 15.2 87 -11.1 12
09:05 1015 29.97 844 24.92 -9.3 15.2 87 -11.1 12
09:10 1015 29.97 844 24.92 -9.3 15.2 87 -11.1 12
09:15 1015 29.97 844 24.92 -9.4 15.2 87 -11.1 12
09:20 1015 29.97 844 24.92 -9.4 15.2 87 -11.1 12.1
09:25 1015 29.97 844 24.92 -9.3 15.2 87 -11.1 12
09:30 1015 29.97 844 24.92 -9.4 15.1 87 -11.1 12
09:35 1015 29.97 844 24.92 -9.3 15.3 87 -11.1 12.1
09:40 1015 29.97 844 24.92 -9.2 15.4 87 -11 12.2
09:45 1015 29.97 844 24.92 -9.1 15.5 86 -11.1 12
09:50 1015 29.97 844 24.92 -9.2 15.5 86 -11.1 12.1
09:55 1015 29.97 844 24.92 -9.2 15.5 86 -11.1 12
10:00 1015 29.97 844 24.92 -9.2 15.4 86 -11.2 11.9
10:05 1015 29.97 844 24.92 -9.3 15.2 86 -11.2 11.9
10:10 1015 29.97 844 24.92 -9.3 15.3 86 -11.2 11.9
10:15 1015 29.97 844 24.92 -9.1 15.6 85 -11.1 11.9
10:20 1015 29.97 844 24.92 -9 15.8 85 -11.1 12
10:25 1015 29.97 844 24.92 -9.1 15.7 84 -11.2 11.8
10:30 1015 29.97 844 24.92 -9.1 15.7 85 -11.1 11.9
10:35 1015 29.97 844 24.92 -9.1 15.7 85 -11.1 11.9
10:40 1015 29.97 844 24.92 -8.9 15.9 84 -11.1 12
10:45 1015 29.97 844 24.92 -8.9 15.9 84 -11.2 11.8
10:50 1015 29.97 844 24.92 -9 15.8 84 -11.2 11.8
10:55 1015 29.97 844 24.92 -8.9 16 83 -11.2 11.9
11:00 1015 29.97 844 24.92 -8.9 16 84 -11.2 11.9
11:05 1015 29.97 844 24.92 -9 15.8 84 -11.3 11.7
11:10 1015 29.97 844 24.92 -9.1 15.7 84 -11.3 11.6
11:15 1015 29.97 844 24.92 -8.8 16.2 83 -11.2 11.9
11:20 1015 29.97 844 24.92 -8.8 16.2 82 -11.3 11.7
11:25 1015 29.97 844 24.92 -8.7 16.3 82 -11.3 11.7
11:30 1015 29.97 845 24.95 -8.8 16.1 82 -11.4 11.6
11:35 1015 29.97 845 24.95 -8.8 16.2 82 -11.4 11.5
11:40 1015 29.97 845 24.95 -8.6 16.6 81 -11.2 11.8
11:45 1015 29.97 845 24.95 -8.3 17 80 -11.2 11.8
11:50 1015 29.97 845 24.95 -8.5 16.7 81 -11.3 11.7
11:55 1015 29.97 845 24.95 -8.6 16.5 80 -11.4 11.4
12:00 1015 29.97 845 24.95 -8.5 16.6 79 -11.5 11.3
12:05 1015 29.97 844 24.92 -8.7 16.3 82 -11.3 11.7
12:10 1015 29.97 844 24.92 -8.7 16.4 81 -11.4 11.5
12:15 1015 29.97 844 24.92 -8.3 17.1 79 -11.3 11.7
12:20 1015 29.97 844 24.92 -8.2 17.3 79 -11.2 11.9
12:25 1015 29.97 844 24.92 -8.1 17.5 78 -11.2 11.8
12:30 1015 29.97 844 24.92 -8.1 17.4 78 -11.3 11.6
12:35 1015 29.97 844 24.92 -8.2 17.2 79 -11.2 11.8
12:40 1015 29.97 844 24.92 -8 17.5 78 -11.2 11.9
12:45 1015 29.97 844 24.92 -7.9 17.9 77 -11.1 12
12:50 1015 29.97 844 24.92 -7.9 17.9 77 -11.1 12
12:55 1015 29.97 844 24.92 -8.1 17.5 80 -11 12.2
13:00 1015 29.97 844 24.92 -7.9 17.8 77 -11.3 11.6
13:05 1015 29.97 844 24.92 -8.1 17.5 79 -11.1 12.1
13:10 1015 29.97 844 24.92 -7.9 17.8 78 -11.1 12
13:15 1015 29.97 844 24.92 -7.8 18 78 -11 12.1
13:20 1015 29.97 844 24.92 -7.8 17.9 77 -11.1 12
13:25 1015 29.97 844 24.92 -7.8 18.1 77 -11.2 11.9
13:30 1015 29.97 844 24.92 -7.8 17.9 77 -11.3 11.7
13:35 1015 29.97 844 24.92 -7.9 17.8 78 -11.1 12
13:40 1015 29.97 844 24.92 -7.8 18 77 -11.2 11.9
13:45 1015 29.97 844 24.92 -7.5 18.5 75 -11.2 11.8
13:50 1015 29.97 844 24.92 -7.6 18.4 75 -11.2 11.9
13:55 1015 29.97 844 24.92 -7.6 18.4 76 -11.2 11.9
14:00 1015 29.97 844 24.92 -7.6 18.4 76 -11.1 12
14:05 1015 29.97 844 24.92 -7.8 18 77 -11.2 11.8
14:10 1015 29.97 844 24.92 -7.8 18 76 -11.3 11.6
14:15 1015 29.97 844 24.92 -7.8 18 77 -11.1 11.9
14:20 1015 29.97 844 24.92 -7.8 17.9 77 -11.2 11.8
14:25 1015 29.97 844 24.92 -7.7 18.1 76 -11.2 11.8
14:30 1015 29.97 844 24.92 -7.6 18.3 74 -11.4 11.4
14:35 1015 29.97 844 24.92 -7.7 18.2 76 -11.3 11.7
14:40 1015 29.97 844 24.92 -7.7 18.1 75 -11.4 11.5
14:45 1015 29.97 844 24.92 -7.9 17.9 75 -11.5 11.2
14:50 1015 29.97 844 24.92 -8.1 17.4 77 -11.4 11.5
14:55 1015 29.97 844 24.92 -7.9 17.8 77 -11.3 11.7
15:00 1015 29.97 844 24.92 -8 17.5 78 -11.3 11.6
15:05 1015 29.97 844 24.92 -8 17.5 78 -11.2 11.8
15:10 1015 29.97 844 24.92 -8 17.7 77 -11.3 11.7
15:15 1015 29.97 844 24.92 -7.9 17.8 77 -11.3 11.7
15:20 1015 29.97 844 24.92 -7.8 17.9 76 -11.3 11.7
15:25 1015 29.97 844 24.92 -7.9 17.8 78 -11.1 12
15:30 1015 29.97 844 24.92 -8.1 17.5 77 -11.4 11.5
15:35 1015 29.97 844 24.92 -8.2 17.3 78 -11.3 11.6
15:40 1015 29.97 844 24.92 -8 17.6 78 -11.3 11.7
15:45 1015 29.97 844 24.92 -8.1 17.4 78 -11.3 11.7
15:50 1015 29.97 844 24.92 -8.1 17.4 78 -11.4 11.5
15:55 1015 29.97 844 24.92 -8.3 17 79 -11.4 11.5
16:00 1015 29.97 844 24.92 -8.7 16.4 80 -11.5 11.3
16:05 1015 29.97 844 24.92 -8.7 16.4 80 -11.5 11.3
16:10 1015 29.97 844 24.92 -8.5 16.7 80 -11.4 11.5
16:15 1015 29.97 844 24.92 -8.3 17.1 78 -11.4 11.5
16:20 1015 29.97 844 24.92 -8.2 17.2 78 -11.4 11.5
16:25 1015 29.97 844 24.92 -8.3 17.1 78 -11.5 11.3
16:30 1015 29.97 844 24.92 -8.3 17 78 -11.5 11.2
16:35 1015 29.97 844 24.92 -8.4 16.9 78 -11.6 11.1
16:40 1015 29.97 844 24.92 -8.5 16.6 79 -11.6 11.1
16:45 1015 29.97 844 24.92 -8.6 16.5 80 -11.5 11.4
16:50 1015 29.97 844 24.92 -8.5 16.8 79 -11.4 11.4
16:55 1015 29.97 844 24.92 -8.5 16.8 79 -11.4 11.4
17:00 1015 29.97 845 24.95 -8.5 16.7 80 -11.4 11.5
17:05 1015 29.97 845 24.95 -8.5 16.7 80 -11.4 11.5
17:10 1015 29.97 845 24.95 -8.6 16.6 81 -11.3 11.7
17:15 1015 29.97 845 24.95 -8.5 16.6 81 -11.3 11.6
17:20 1015 29.97 845 24.95 -8.6 16.6 81 -11.2 11.8
17:25 1015 29.97 845 24.95 -8.6 16.5 81 -11.3 11.6
17:30 1016 30 845 24.95 -8.7 16.4 82 -11.2 11.8
17:35 1016 30 845 24.95 -8.7 16.4 82 -11.3 11.7
17:40 1016 30 845 24.95 -8.7 16.3 82 -11.3 11.7
17:45 1016 30 845 24.95 -8.7 16.4 80 -11.5 11.3
17:50 1016 30 845 24.95 -8.7 16.3 82 -11.3 11.6
17:55 1016 30 845 24.95 -8.8 16.2 83 -11.2 11.9
18:00 1016 30 845 24.95 -8.8 16.2 83 -11.2 11.8
18:05 1016 30 845 24.95 -8.9 16 84 -11.2 11.9
18:10 1016 30 845 24.95 -9 15.8 84 -11.3 11.7
18:15 1016 30 845 24.95 -9.2 15.5 85 -11.3 11.6
18:20 1016 30 845 24.95 -9.2 15.5 85 -11.3 11.7
18:25 1016 30 845 24.95 -9.2 15.4 85 -11.2 11.8
18:30 1016 30 845 24.95 -9.2 15.5 86 -11.1 12
18:35 1016 30 845 24.95 -9.1 15.7 84 -11.2 11.8
18:40 1016 30 845 24.95 -9.3 15.4 86 -11.2 11.9
18:45 1016 30 845 24.95 -9.1 15.6 86 -11.1 12
18:50 1016 30 845 24.95 -9.1 15.6 85 -11.1 12
18:55 1016 30 845 24.95 -9.1 15.6 86 -11.1 12.1
19:00 1016 30 845 24.95 -9.1 15.7 85 -11.1 12.1
19:05 1016 30 845 24.95 -9 15.7 85 -11.1 12
19:10 1016 30 845 24.95 -9.1 15.7 85 -11.1 11.9
19:15 1016 30 845 24.95 -9.2 15.4 87 -11.1 12.1
19:20 1016 30 845 24.95 -9.3 15.3 87 -11.1 12
19:25 1016 30 845 24.95 -9.2 15.4 87 -11.1 12.1
19:30 1016 30 845 24.95 -9.2 15.5 86 -11.1 12.1
19:35 1016 30 845 24.95 -9.1 15.6 86 -11.1 12
19:40 1016 30 845 24.95 -9.1 15.6 86 -11.1 12
19:45 1016 30 846 24.98 -9.2 15.5 86 -11.1 12
19:50 1016 30 846 24.98 -9.1 15.5 85 -11.2 11.9
19:55 1016 30 846 24.98 -9.1 15.6 84 -11.3 11.7
20:00 1016 30 846 24.98 -9.2 15.5 84 -11.5 11.3
20:05 1016 30 846 24.98 -9.2 15.4 84 -11.5 11.3
20:10 1016 30 846 24.98 -9.2 15.4 84 -11.5 11.2
20:15 1016 30 846 24.98 -9.3 15.2 84 -11.5 11.3
20:20 1016 30 846 24.98 -9.3 15.3 84 -11.5 11.3
20:25 1016 30 846 24.98 -9.3 15.2 85 -11.5 11.4
20:30 1016 30 846 24.98 -9.4 15.2 85 -11.4 11.4
20:35 1016 30 846 24.98 -9.4 15 85 -11.4 11.4
20:40 1017 30.03 846 24.98 -9.5 15 85 -11.5 11.3
20:45 1017 30.03 846 24.98 -9.5 14.8 86 -11.5 11.3
20:50 1017 30.03 846 24.98 -9.6 14.7 86 -11.5 11.3
20:55 1017 30.03 846 24.98 -9.7 14.6 87 -11.5 11.3
21:00 1017 30.03 846 24.98 -9.7 14.6 86 -11.5 11.3
21:05 1017 30.03 846 24.98 -9.7 14.5 87 -11.6 11.2
21:10 1017 30.03 846 24.98 -9.8 14.5 86 -11.6 11.1
21:15 1017 30.03 846 24.98 -9.8 14.3 87 -11.6 11.1
21:20 1017 30.03 846 24.98 -9.9 14.1 87 -11.7 11
21:25 1017 30.03 846 24.98 -9.9 14.1 87 -11.7 10.9
21:30 1017 30.03 846 24.98 -10 14.1 87 -11.7 10.9
21:35 1017 30.03 846 24.98 -10 14 87 -11.8 10.7
21:40 1017 30.03 846 24.98 -10.1 13.9 87 -11.9 10.7
21:45 1017 30.03 846 24.98 -10.2 13.7 87 -11.9 10.5
21:50 1017 30.03 846 24.98 -10.3 13.4 88 -12 10.5
21:55 1017 30.03 846 24.98 -10.4 13.3 88 -12 10.3
22:00 1017 30.03 846 24.98 -10.4 13.2 88 -12.1 10.2
22:05 1017 30.03 846 24.98 -10.4 13.2 88 -12.1 10.2
22:10 1017 30.03 846 24.98 -10.5 13.1 88 -12.2 10.1
22:15 1017 30.03 846 24.98 -10.5 13.2 88 -12.1 10.1
22:20 1017 30.03 846 24.98 -10.5 13.1 87 -12.3 9.9
22:25 1017 30.03 846 24.98 -10.5 13 87 -12.3 9.9
22:30 1017 30.03 846 24.98 -10.5 13.1 87 -12.2 10
22:35 1017 30.03 846 24.98 -10.6 13 87 -12.3 9.9
22:40 1017 30.03 846 24.98 -10.6 12.9 87 -12.4 9.6
22:45 1017 30.03 846 24.98 -10.8 12.5 86 -12.7 9.1
22:50 1017 30.03 846 24.98 -11.1 12 86 -13 8.6
22:55 1017 30.03 846 24.98 -11.2 11.8 86 -13.1 8.4
23:00 1017 30.03 846 24.98 -11.3 11.7 86 -13.1 8.4
23:05 1017 30.03 846 24.98 -11.2 11.8 86 -13.1 8.4
23:10 1017 30.03 846 24.98 -11.1 11.9 86 -13.1 8.5
23:15 1017 30.03 846 24.98 -11.2 11.8 86 -13.2 8.3
23:20 1017 30.03 846 24.98 -11.4 11.6 86 -13.2 8.2
23:25 1017 30.03 846 24.98 -11.4 11.5 86 -13.2 8.2
23:30 1017 30.03 846 24.98 -11.4 11.6 87 -13.2 8.3
23:35 1017 30.03 846 24.98 -11.3 11.6 86 -13.2 8.3
23:40 1017 30.03 846 24.98 -11.3 11.6 86 -13.3 8
23:45 1017 30.03 846 24.98 -11.6 11.1 86 -13.4 7.8
23:50 1017 30.03 846 24.98 -11.6 11.1 86 -13.5 7.6
23:55 1017 30.03 846 24.98 -11.7 11 87 -13.5 7.7
24:00 1017 30.03 846 24.98 -11.6 11.1 86 -13.5 7.8